sensor_id;sensor_type;location;lat;lon;timestamp;P1;durP1;ratioP1;P2;durP2;ratioP2
7575;SDS011;3829;50.798;4.358;2023-02-17T00:02:03;9.83;;;7.40;;
7575;SDS011;3829;50.798;4.358;2023-02-17T00:04:29;10.27;;;6.57;;
7575;SDS011;3829;50.798;4.358;2023-02-17T00:06:56;9.47;;;6.80;;
7575;SDS011;3829;50.798;4.358;2023-02-17T00:09:22;8.23;;;5.90;;
7575;SDS011;3829;50.798;4.358;2023-02-17T00:11:48;9.00;;;6.70;;
7575;SDS011;3829;50.798;4.358;2023-02-17T00:14:14;9.87;;;6.80;;
7575;SDS011;3829;50.798;4.358;2023-02-17T00:16:40;7.50;;;5.70;;
7575;SDS011;3829;50.798;4.358;2023-02-17T00:19:06;9.30;;;5.80;;
7575;SDS011;3829;50.798;4.358;2023-02-17T00:21:53;8.60;;;6.23;;
7575;SDS011;3829;50.798;4.358;2023-02-17T00:24:21;7.47;;;5.80;;
7575;SDS011;3829;50.798;4.358;2023-02-17T00:26:48;6.20;;;5.23;;
7575;SDS011;3829;50.798;4.358;2023-02-17T00:29:14;6.07;;;5.10;;
7575;SDS011;3829;50.798;4.358;2023-02-17T00:31:40;6.67;;;5.33;;
7575;SDS011;3829;50.798;4.358;2023-02-17T00:34:05;6.10;;;4.53;;
7575;SDS011;3829;50.798;4.358;2023-02-17T00:36:31;7.00;;;5.60;;
7575;SDS011;3829;50.798;4.358;2023-02-17T00:38:57;7.37;;;5.60;;
7575;SDS011;3829;50.798;4.358;2023-02-17T00:41:23;7.27;;;5.43;;
7575;SDS011;3829;50.798;4.358;2023-02-17T00:43:52;7.67;;;4.63;;
7575;SDS011;3829;50.798;4.358;2023-02-17T00:46:18;6.37;;;4.57;;
7575;SDS011;3829;50.798;4.358;2023-02-17T00:48:44;6.57;;;4.80;;
7575;SDS011;3829;50.798;4.358;2023-02-17T00:51:11;5.20;;;4.43;;
7575;SDS011;3829;50.798;4.358;2023-02-17T00:53:38;6.40;;;4.23;;
7575;SDS011;3829;50.798;4.358;2023-02-17T00:56:03;4.90;;;4.10;;
7575;SDS011;3829;50.798;4.358;2023-02-17T00:58:30;4.50;;;3.87;;
7575;SDS011;3829;50.798;4.358;2023-02-17T01:00:55;4.07;;;3.67;;
7575;SDS011;3829;50.798;4.358;2023-02-17T01:03:22;5.00;;;3.87;;
7575;SDS011;3829;50.798;4.358;2023-02-17T01:05:51;3.73;;;3.33;;
7575;SDS011;3829;50.798;4.358;2023-02-17T01:08:19;3.43;;;3.00;;
7575;SDS011;3829;50.798;4.358;2023-02-17T01:10:46;4.50;;;3.40;;
7575;SDS011;3829;50.798;4.358;2023-02-17T01:13:14;4.93;;;3.43;;
7575;SDS011;3829;50.798;4.358;2023-02-17T01:15:42;4.47;;;3.60;;
7575;SDS011;3829;50.798;4.358;2023-02-17T01:18:09;4.77;;;3.50;;
7575;SDS011;3829;50.798;4.358;2023-02-17T01:20:35;4.33;;;3.33;;
7575;SDS011;3829;50.798;4.358;2023-02-17T01:23:02;5.73;;;3.80;;
7575;SDS011;3829;50.798;4.358;2023-02-17T01:25:29;3.57;;;3.27;;
7575;SDS011;3829;50.798;4.358;2023-02-17T01:27:55;5.80;;;3.97;;
7575;SDS011;3829;50.798;4.358;2023-02-17T01:30:21;7.03;;;3.97;;
7575;SDS011;3829;50.798;4.358;2023-02-17T01:32:47;5.57;;;3.60;;
7575;SDS011;3829;50.798;4.358;2023-02-17T01:35:13;5.80;;;3.97;;
7575;SDS011;3829;50.798;4.358;2023-02-17T01:37:39;5.67;;;4.13;;
7575;SDS011;3829;50.798;4.358;2023-02-17T01:40:04;4.87;;;4.33;;
7575;SDS011;3829;50.798;4.358;2023-02-17T01:42:30;5.97;;;3.67;;
7575;SDS011;3829;50.798;4.358;2023-02-17T01:47:53;8.50;;;4.00;;
7575;SDS011;3829;50.798;4.358;2023-02-17T01:53:23;4.73;;;3.50;;
7575;SDS011;3829;50.798;4.358;2023-02-17T01:55:54;4.77;;;3.87;;
7575;SDS011;3829;50.798;4.358;2023-02-17T01:58:21;5.70;;;3.73;;
7575;SDS011;3829;50.798;4.358;2023-02-17T02:00:48;4.73;;;3.73;;
7575;SDS011;3829;50.798;4.358;2023-02-17T02:03:15;5.07;;;3.63;;
7575;SDS011;3829;50.798;4.358;2023-02-17T02:05:41;9.80;;;5.13;;
7575;SDS011;3829;50.798;4.358;2023-02-17T02:08:08;6.13;;;3.43;;
7575;SDS011;3829;50.798;4.358;2023-02-17T02:10:35;9.83;;;3.83;;
7575;SDS011;3829;50.798;4.358;2023-02-17T02:13:00;6.03;;;3.87;;
7575;SDS011;3829;50.798;4.358;2023-02-17T02:15:28;6.63;;;4.17;;
7575;SDS011;3829;50.798;4.358;2023-02-17T02:31:44;7.30;;;4.53;;
7575;SDS011;3829;50.798;4.358;2023-02-17T02:34:40;7.87;;;4.73;;
7575;SDS011;3829;50.798;4.358;2023-02-17T02:37:24;8.90;;;4.43;;
7575;SDS011;3829;50.798;4.358;2023-02-17T02:39:57;6.17;;;4.37;;
7575;SDS011;3829;50.798;4.358;2023-02-17T02:42:27;5.30;;;4.17;;
7575;SDS011;3829;50.798;4.358;2023-02-17T02:44:54;6.57;;;4.03;;
7575;SDS011;3829;50.798;4.358;2023-02-17T02:50:13;8.60;;;4.90;;
7575;SDS011;3829;50.798;4.358;2023-02-17T03:00:55;9.23;;;4.80;;
7575;SDS011;3829;50.798;4.358;2023-02-17T03:03:35;7.07;;;4.53;;
7575;SDS011;3829;50.798;4.358;2023-02-17T03:06:25;8.20;;;4.80;;
7575;SDS011;3829;50.798;4.358;2023-02-17T03:09:02;7.77;;;4.37;;
7575;SDS011;3829;50.798;4.358;2023-02-17T03:11:37;7.77;;;4.80;;
7575;SDS011;3829;50.798;4.358;2023-02-17T03:14:15;7.20;;;4.33;;
7575;SDS011;3829;50.798;4.358;2023-02-17T03:16:43;9.60;;;4.60;;
7575;SDS011;3829;50.798;4.358;2023-02-17T03:19:10;6.20;;;4.23;;
7575;SDS011;3829;50.798;4.358;2023-02-17T03:21:38;7.30;;;4.57;;
7575;SDS011;3829;50.798;4.358;2023-02-17T03:24:11;8.97;;;4.40;;
7575;SDS011;3829;50.798;4.358;2023-02-17T03:26:37;6.13;;;3.87;;
7575;SDS011;3829;50.798;4.358;2023-02-17T03:29:02;7.40;;;4.40;;
7575;SDS011;3829;50.798;4.358;2023-02-17T03:31:28;6.60;;;4.50;;
7575;SDS011;3829;50.798;4.358;2023-02-17T03:33:54;6.70;;;3.93;;
7575;SDS011;3829;50.798;4.358;2023-02-17T03:36:20;5.90;;;3.87;;
7575;SDS011;3829;50.798;4.358;2023-02-17T03:38:45;4.40;;;3.23;;
7575;SDS011;3829;50.798;4.358;2023-02-17T03:41:11;8.00;;;4.23;;
7575;SDS011;3829;50.798;4.358;2023-02-17T03:43:37;6.97;;;3.33;;
7575;SDS011;3829;50.798;4.358;2023-02-17T03:46:03;6.87;;;3.60;;
7575;SDS011;3829;50.798;4.358;2023-02-17T03:48:28;4.70;;;3.40;;
7575;SDS011;3829;50.798;4.358;2023-02-17T03:50:54;7.73;;;3.80;;
7575;SDS011;3829;50.798;4.358;2023-02-17T03:53:19;6.10;;;4.23;;
7575;SDS011;3829;50.798;4.358;2023-02-17T03:55:45;5.67;;;3.47;;
7575;SDS011;3829;50.798;4.358;2023-02-17T03:58:11;6.27;;;3.80;;
7575;SDS011;3829;50.798;4.358;2023-02-17T04:00:36;6.87;;;3.50;;
7575;SDS011;3829;50.798;4.358;2023-02-17T04:03:02;6.53;;;3.67;;
7575;SDS011;3829;50.798;4.358;2023-02-17T04:05:27;6.63;;;3.93;;
7575;SDS011;3829;50.798;4.358;2023-02-17T04:07:53;4.17;;;3.43;;
7575;SDS011;3829;50.798;4.358;2023-02-17T04:10:19;6.13;;;3.87;;
7575;SDS011;3829;50.798;4.358;2023-02-17T04:12:45;7.93;;;3.60;;
7575;SDS011;3829;50.798;4.358;2023-02-17T04:15:10;5.40;;;3.43;;
7575;SDS011;3829;50.798;4.358;2023-02-17T04:17:36;5.70;;;4.13;;
7575;SDS011;3829;50.798;4.358;2023-02-17T04:20:02;8.97;;;4.37;;
7575;SDS011;3829;50.798;4.358;2023-02-17T04:22:29;5.73;;;3.60;;
7575;SDS011;3829;50.798;4.358;2023-02-17T04:24:55;6.47;;;4.13;;
7575;SDS011;3829;50.798;4.358;2023-02-17T04:27:20;6.93;;;4.27;;
7575;SDS011;3829;50.798;4.358;2023-02-17T04:29:46;7.93;;;4.10;;
7575;SDS011;3829;50.798;4.358;2023-02-17T04:32:12;6.97;;;4.43;;
7575;SDS011;3829;50.798;4.358;2023-02-17T04:34:37;7.30;;;4.33;;
7575;SDS011;3829;50.798;4.358;2023-02-17T04:37:03;5.37;;;3.77;;
7575;SDS011;3829;50.798;4.358;2023-02-17T04:39:30;5.87;;;4.03;;
7575;SDS011;3829;50.798;4.358;2023-02-17T04:41:56;7.80;;;4.20;;
7575;SDS011;3829;50.798;4.358;2023-02-17T04:44:21;6.43;;;4.43;;
7575;SDS011;3829;50.798;4.358;2023-02-17T04:46:47;5.33;;;3.90;;
7575;SDS011;3829;50.798;4.358;2023-02-17T04:49:13;5.63;;;4.07;;
7575;SDS011;3829;50.798;4.358;2023-02-17T04:51:38;9.67;;;5.03;;
7575;SDS011;3829;50.798;4.358;2023-02-17T04:54:04;6.47;;;4.80;;
7575;SDS011;3829;50.798;4.358;2023-02-17T04:56:29;6.60;;;4.83;;
7575;SDS011;3829;50.798;4.358;2023-02-17T04:58:55;5.73;;;4.37;;
7575;SDS011;3829;50.798;4.358;2023-02-17T05:01:20;6.20;;;4.30;;
7575;SDS011;3829;50.798;4.358;2023-02-17T05:03:46;9.53;;;4.97;;
7575;SDS011;3829;50.798;4.358;2023-02-17T05:06:12;8.60;;;4.60;;
7575;SDS011;3829;50.798;4.358;2023-02-17T05:08:40;5.83;;;4.07;;
7575;SDS011;3829;50.798;4.358;2023-02-17T05:11:06;7.43;;;4.50;;
7575;SDS011;3829;50.798;4.358;2023-02-17T05:13:31;6.10;;;4.30;;
7575;SDS011;3829;50.798;4.358;2023-02-17T05:15:57;5.03;;;3.43;;
7575;SDS011;3829;50.798;4.358;2023-02-17T05:18:23;9.63;;;3.90;;
7575;SDS011;3829;50.798;4.358;2023-02-17T05:20:48;6.90;;;4.10;;
7575;SDS011;3829;50.798;4.358;2023-02-17T05:23:15;6.53;;;3.83;;
7575;SDS011;3829;50.798;4.358;2023-02-17T05:25:41;7.40;;;4.30;;
7575;SDS011;3829;50.798;4.358;2023-02-17T05:28:06;9.27;;;4.33;;
7575;SDS011;3829;50.798;4.358;2023-02-17T05:30:32;9.17;;;4.07;;
7575;SDS011;3829;50.798;4.358;2023-02-17T05:32:58;7.87;;;4.43;;
7575;SDS011;3829;50.798;4.358;2023-02-17T05:35:24;10.20;;;4.80;;
7575;SDS011;3829;50.798;4.358;2023-02-17T05:37:50;5.07;;;3.93;;
7575;SDS011;3829;50.798;4.358;2023-02-17T05:40:16;10.73;;;4.70;;
7575;SDS011;3829;50.798;4.358;2023-02-17T05:42:41;11.80;;;5.10;;
7575;SDS011;3829;50.798;4.358;2023-02-17T05:45:07;7.50;;;5.57;;
7575;SDS011;3829;50.798;4.358;2023-02-17T05:47:33;9.57;;;5.40;;
7575;SDS011;3829;50.798;4.358;2023-02-17T05:49:59;9.13;;;6.17;;
7575;SDS011;3829;50.798;4.358;2023-02-17T05:52:25;8.60;;;5.90;;
7575;SDS011;3829;50.798;4.358;2023-02-17T05:54:51;8.73;;;6.33;;
7575;SDS011;3829;50.798;4.358;2023-02-17T05:57:16;9.63;;;5.90;;
7575;SDS011;3829;50.798;4.358;2023-02-17T05:59:43;11.80;;;6.10;;
7575;SDS011;3829;50.798;4.358;2023-02-17T06:02:08;9.97;;;6.50;;
7575;SDS011;3829;50.798;4.358;2023-02-17T06:04:34;13.13;;;6.13;;
7575;SDS011;3829;50.798;4.358;2023-02-17T06:06:59;8.47;;;5.20;;
7575;SDS011;3829;50.798;4.358;2023-02-17T06:09:25;14.13;;;6.33;;
7575;SDS011;3829;50.798;4.358;2023-02-17T06:11:51;11.67;;;6.60;;
7575;SDS011;3829;50.798;4.358;2023-02-17T06:14:17;8.87;;;6.13;;
7575;SDS011;3829;50.798;4.358;2023-02-17T06:16:42;11.23;;;6.77;;
7575;SDS011;3829;50.798;4.358;2023-02-17T06:19:08;10.67;;;6.47;;
7575;SDS011;3829;50.798;4.358;2023-02-17T06:21:33;11.80;;;6.60;;
7575;SDS011;3829;50.798;4.358;2023-02-17T06:23:59;9.43;;;6.47;;
7575;SDS011;3829;50.798;4.358;2023-02-17T06:26:25;10.77;;;5.87;;
7575;SDS011;3829;50.798;4.358;2023-02-17T06:28:50;10.60;;;5.87;;
7575;SDS011;3829;50.798;4.358;2023-02-17T06:31:16;10.07;;;6.17;;
7575;SDS011;3829;50.798;4.358;2023-02-17T06:33:43;11.17;;;6.37;;
7575;SDS011;3829;50.798;4.358;2023-02-17T06:36:08;10.37;;;6.50;;
7575;SDS011;3829;50.798;4.358;2023-02-17T06:38:34;11.23;;;5.80;;
7575;SDS011;3829;50.798;4.358;2023-02-17T06:41:00;11.50;;;6.77;;
7575;SDS011;3829;50.798;4.358;2023-02-17T06:43:25;13.00;;;6.60;;
7575;SDS011;3829;50.798;4.358;2023-02-17T06:45:51;11.97;;;6.27;;
7575;SDS011;3829;50.798;4.358;2023-02-17T06:48:16;11.03;;;6.67;;
7575;SDS011;3829;50.798;4.358;2023-02-17T06:50:42;10.97;;;6.57;;
7575;SDS011;3829;50.798;4.358;2023-02-17T06:53:07;10.53;;;6.20;;
7575;SDS011;3829;50.798;4.358;2023-02-17T06:55:33;10.00;;;6.40;;
7575;SDS011;3829;50.798;4.358;2023-02-17T06:58:01;10.10;;;6.33;;
7575;SDS011;3829;50.798;4.358;2023-02-17T07:00:26;12.67;;;6.43;;
7575;SDS011;3829;50.798;4.358;2023-02-17T07:02:52;11.87;;;6.33;;
7575;SDS011;3829;50.798;4.358;2023-02-17T07:05:18;12.57;;;6.40;;
7575;SDS011;3829;50.798;4.358;2023-02-17T07:07:43;10.93;;;6.60;;
7575;SDS011;3829;50.798;4.358;2023-02-17T07:10:09;10.80;;;6.47;;
7575;SDS011;3829;50.798;4.358;2023-02-17T07:12:35;11.90;;;6.53;;
7575;SDS011;3829;50.798;4.358;2023-02-17T07:15:01;11.20;;;7.00;;
7575;SDS011;3829;50.798;4.358;2023-02-17T07:17:26;12.57;;;6.27;;
7575;SDS011;3829;50.798;4.358;2023-02-17T07:19:52;13.23;;;6.10;;
7575;SDS011;3829;50.798;4.358;2023-02-17T07:22:17;10.00;;;6.30;;
7575;SDS011;3829;50.798;4.358;2023-02-17T07:24:43;11.30;;;6.13;;
7575;SDS011;3829;50.798;4.358;2023-02-17T07:27:08;7.17;;;4.30;;
7575;SDS011;3829;50.798;4.358;2023-02-17T07:29:34;13.37;;;6.50;;
7575;SDS011;3829;50.798;4.358;2023-02-17T07:32:01;11.03;;;6.63;;
7575;SDS011;3829;50.798;4.358;2023-02-17T07:34:26;10.50;;;6.40;;
7575;SDS011;3829;50.798;4.358;2023-02-17T07:36:52;10.93;;;6.80;;
7575;SDS011;3829;50.798;4.358;2023-02-17T07:39:17;11.87;;;6.87;;
7575;SDS011;3829;50.798;4.358;2023-02-17T07:41:43;9.47;;;6.13;;
7575;SDS011;3829;50.798;4.358;2023-02-17T07:44:09;11.73;;;6.40;;
7575;SDS011;3829;50.798;4.358;2023-02-17T07:46:35;10.43;;;6.47;;
7575;SDS011;3829;50.798;4.358;2023-02-17T07:49:00;8.90;;;6.30;;
7575;SDS011;3829;50.798;4.358;2023-02-17T07:51:26;8.73;;;5.97;;
7575;SDS011;3829;50.798;4.358;2023-02-17T07:53:52;10.23;;;6.53;;
7575;SDS011;3829;50.798;4.358;2023-02-17T07:56:19;9.90;;;6.33;;
7575;SDS011;3829;50.798;4.358;2023-02-17T07:58:47;5.87;;;3.87;;
7575;SDS011;3829;50.798;4.358;2023-02-17T08:01:18;10.63;;;5.70;;
7575;SDS011;3829;50.798;4.358;2023-02-17T08:03:47;9.57;;;5.17;;
7575;SDS011;3829;50.798;4.358;2023-02-17T08:06:18;10.00;;;6.10;;
7575;SDS011;3829;50.798;4.358;2023-02-17T08:08:45;10.57;;;6.03;;
7575;SDS011;3829;50.798;4.358;2023-02-17T08:11:31;10.47;;;6.50;;
7575;SDS011;3829;50.798;4.358;2023-02-17T08:14:15;10.67;;;6.63;;
7575;SDS011;3829;50.798;4.358;2023-02-17T08:16:41;7.73;;;4.63;;
7575;SDS011;3829;50.798;4.358;2023-02-17T08:19:06;9.23;;;5.90;;
7575;SDS011;3829;50.798;4.358;2023-02-17T08:21:33;8.87;;;6.00;;
7575;SDS011;3829;50.798;4.358;2023-02-17T08:23:59;9.27;;;5.67;;
7575;SDS011;3829;50.798;4.358;2023-02-17T08:26:25;9.73;;;5.13;;
7575;SDS011;3829;50.798;4.358;2023-02-17T08:28:51;13.27;;;6.53;;
7575;SDS011;3829;50.798;4.358;2023-02-17T08:31:38;8.03;;;5.20;;
7575;SDS011;3829;50.798;4.358;2023-02-17T08:34:07;9.50;;;5.40;;
7575;SDS011;3829;50.798;4.358;2023-02-17T08:36:34;7.17;;;5.30;;
7575;SDS011;3829;50.798;4.358;2023-02-17T08:39:05;7.20;;;4.97;;
7575;SDS011;3829;50.798;4.358;2023-02-17T08:41:35;7.33;;;4.90;;
7575;SDS011;3829;50.798;4.358;2023-02-17T08:44:02;8.40;;;5.30;;
7575;SDS011;3829;50.798;4.358;2023-02-17T08:46:39;7.53;;;4.80;;
7575;SDS011;3829;50.798;4.358;2023-02-17T08:49:06;7.27;;;4.23;;
7575;SDS011;3829;50.798;4.358;2023-02-17T08:51:31;6.53;;;4.07;;
7575;SDS011;3829;50.798;4.358;2023-02-17T08:53:58;5.93;;;4.00;;
7575;SDS011;3829;50.798;4.358;2023-02-17T08:56:26;5.97;;;3.73;;
7575;SDS011;3829;50.798;4.358;2023-02-17T08:58:52;5.87;;;3.30;;
7575;SDS011;3829;50.798;4.358;2023-02-17T09:01:19;4.53;;;3.43;;
7575;SDS011;3829;50.798;4.358;2023-02-17T09:03:45;5.40;;;3.50;;
7575;SDS011;3829;50.798;4.358;2023-02-17T09:06:12;5.27;;;3.23;;
7575;SDS011;3829;50.798;4.358;2023-02-17T09:08:39;6.17;;;3.50;;
7575;SDS011;3829;50.798;4.358;2023-02-17T09:11:06;3.57;;;3.00;;
7575;SDS011;3829;50.798;4.358;2023-02-17T09:13:33;3.93;;;2.70;;
7575;SDS011;3829;50.798;4.358;2023-02-17T09:15:59;3.27;;;2.70;;
7575;SDS011;3829;50.798;4.358;2023-02-17T09:18:25;4.77;;;2.97;;
7575;SDS011;3829;50.798;4.358;2023-02-17T09:20:50;2.70;;;2.37;;
7575;SDS011;3829;50.798;4.358;2023-02-17T09:23:16;2.93;;;2.63;;
7575;SDS011;3829;50.798;4.358;2023-02-17T09:25:43;2.83;;;2.10;;
7575;SDS011;3829;50.798;4.358;2023-02-17T09:28:09;3.43;;;2.40;;
7575;SDS011;3829;50.798;4.358;2023-02-17T09:30:34;3.10;;;2.23;;
7575;SDS011;3829;50.798;4.358;2023-02-17T09:33:00;2.97;;;1.83;;
7575;SDS011;3829;50.798;4.358;2023-02-17T09:35:26;2.10;;;1.90;;
7575;SDS011;3829;50.798;4.358;2023-02-17T09:37:52;2.10;;;1.90;;
7575;SDS011;3829;50.798;4.358;2023-02-17T09:40:22;2.03;;;1.70;;
7575;SDS011;3829;50.798;4.358;2023-02-17T09:42:55;1.47;;;1.37;;
7575;SDS011;3829;50.798;4.358;2023-02-17T09:45:22;1.80;;;1.60;;
7575;SDS011;3829;50.798;4.358;2023-02-17T09:47:57;2.37;;;1.60;;
7575;SDS011;3829;50.798;4.358;2023-02-17T09:50:31;2.13;;;1.83;;
7575;SDS011;3829;50.798;4.358;2023-02-17T09:53:09;4.00;;;1.80;;
7575;SDS011;3829;50.798;4.358;2023-02-17T09:55:48;2.50;;;1.77;;
7575;SDS011;3829;50.798;4.358;2023-02-17T09:58:18;3.13;;;1.77;;
7575;SDS011;3829;50.798;4.358;2023-02-17T10:00:55;2.37;;;1.80;;
7575;SDS011;3829;50.798;4.358;2023-02-17T10:03:27;2.07;;;1.87;;
7575;SDS011;3829;50.798;4.358;2023-02-17T10:08:54;4.80;;;1.80;;
7575;SDS011;3829;50.798;4.358;2023-02-17T10:13:54;1.40;;;1.30;;
7575;SDS011;3829;50.798;4.358;2023-02-17T10:16:26;4.00;;;1.67;;
7575;SDS011;3829;50.798;4.358;2023-02-17T10:19:00;1.70;;;1.57;;
7575;SDS011;3829;50.798;4.358;2023-02-17T10:21:50;2.87;;;1.80;;
7575;SDS011;3829;50.798;4.358;2023-02-17T10:24:29;1.70;;;1.60;;
7575;SDS011;3829;50.798;4.358;2023-02-17T10:37:21;2.77;;;1.70;;
7575;SDS011;3829;50.798;4.358;2023-02-17T10:40:06;1.30;;;1.20;;
7575;SDS011;3829;50.798;4.358;2023-02-17T10:42:37;1.50;;;1.20;;
7575;SDS011;3829;50.798;4.358;2023-02-17T10:47:37;1.40;;;1.30;;
7575;SDS011;3829;50.798;4.358;2023-02-17T10:50:05;3.83;;;2.10;;
7575;SDS011;3829;50.798;4.358;2023-02-17T10:52:41;4.53;;;1.90;;
7575;SDS011;3829;50.798;4.358;2023-02-17T10:55:12;5.27;;;2.07;;
7575;SDS011;3829;50.798;4.358;2023-02-17T10:58:03;3.53;;;1.80;;
7575;SDS011;3829;50.798;4.358;2023-02-17T11:00:43;1.60;;;1.50;;
7575;SDS011;3829;50.798;4.358;2023-02-17T11:03:20;1.50;;;1.40;;
7575;SDS011;3829;50.798;4.358;2023-02-17T11:05:54;2.50;;;1.80;;
7575;SDS011;3829;50.798;4.358;2023-02-17T11:08:32;2.67;;;1.70;;
7575;SDS011;3829;50.798;4.358;2023-02-17T11:11:02;2.43;;;1.70;;
7575;SDS011;3829;50.798;4.358;2023-02-17T11:13:37;6.90;;;2.13;;
7575;SDS011;3829;50.798;4.358;2023-02-17T11:16:18;2.00;;;1.80;;
7575;SDS011;3829;50.798;4.358;2023-02-17T11:18:48;2.33;;;1.80;;
7575;SDS011;3829;50.798;4.358;2023-02-17T11:21:14;1.50;;;1.40;;
7575;SDS011;3829;50.798;4.358;2023-02-17T11:23:47;1.50;;;1.40;;
7575;SDS011;3829;50.798;4.358;2023-02-17T11:26:26;2.67;;;1.47;;
7575;SDS011;3829;50.798;4.358;2023-02-17T11:28:53;3.37;;;1.63;;
7575;SDS011;3829;50.798;4.358;2023-02-17T11:31:26;1.93;;;1.57;;
7575;SDS011;3829;50.798;4.358;2023-02-17T11:33:53;2.13;;;1.90;;
7575;SDS011;3829;50.798;4.358;2023-02-17T11:36:28;1.90;;;1.77;;
7575;SDS011;3829;50.798;4.358;2023-02-17T11:38:55;2.40;;;1.80;;
7575;SDS011;3829;50.798;4.358;2023-02-17T11:41:21;2.60;;;1.73;;
7575;SDS011;3829;50.798;4.358;2023-02-17T11:43:51;2.13;;;1.90;;
7575;SDS011;3829;50.798;4.358;2023-02-17T11:46:23;3.07;;;1.70;;
7575;SDS011;3829;50.798;4.358;2023-02-17T11:49:33;4.70;;;1.67;;
7575;SDS011;3829;50.798;4.358;2023-02-17T11:51:57;3.73;;;1.90;;
7575;SDS011;3829;50.798;4.358;2023-02-17T11:54:47;3.13;;;1.80;;
7575;SDS011;3829;50.798;4.358;2023-02-17T12:08:30;2.77;;;1.77;;
7575;SDS011;3829;50.798;4.358;2023-02-17T12:11:46;4.80;;;3.03;;
7575;SDS011;3829;50.798;4.358;2023-02-17T12:14:46;2.67;;;1.87;;
7575;SDS011;3829;50.798;4.358;2023-02-17T12:26:02;5.53;;;1.20;;
7575;SDS011;3829;50.798;4.358;2023-02-17T12:37:05;2.17;;;1.00;;
7575;SDS011;3829;50.798;4.358;2023-02-17T12:39:54;2.03;;;1.77;;
7575;SDS011;3829;50.798;4.358;2023-02-17T12:42:29;4.00;;;1.40;;
7575;SDS011;3829;50.798;4.358;2023-02-17T12:45:15;1.87;;;1.20;;
7575;SDS011;3829;50.798;4.358;2023-02-17T12:53:02;4.60;;;1.27;;
7575;SDS011;3829;50.798;4.358;2023-02-17T12:55:43;3.33;;;1.73;;
7575;SDS011;3829;50.798;4.358;2023-02-17T12:58:19;6.10;;;1.67;;
7575;SDS011;3829;50.798;4.358;2023-02-17T13:00:51;2.17;;;1.20;;
7575;SDS011;3829;50.798;4.358;2023-02-17T13:03:40;1.13;;;0.83;;
7575;SDS011;3829;50.798;4.358;2023-02-17T13:08:54;2.10;;;0.97;;
7575;SDS011;3829;50.798;4.358;2023-02-17T13:11:26;3.23;;;1.20;;
7575;SDS011;3829;50.798;4.358;2023-02-17T13:13:54;1.67;;;1.33;;
7575;SDS011;3829;50.798;4.358;2023-02-17T13:16:19;3.83;;;2.10;;
7575;SDS011;3829;50.798;4.358;2023-02-17T13:18:46;3.57;;;2.40;;
7575;SDS011;3829;50.798;4.358;2023-02-17T13:21:14;3.33;;;2.00;;
7575;SDS011;3829;50.798;4.358;2023-02-17T13:23:41;3.73;;;2.43;;
7575;SDS011;3829;50.798;4.358;2023-02-17T13:28:45;3.90;;;2.77;;
7575;SDS011;3829;50.798;4.358;2023-02-17T13:31:14;3.37;;;2.87;;
7575;SDS011;3829;50.798;4.358;2023-02-17T13:33:51;1.80;;;1.63;;
7575;SDS011;3829;50.798;4.358;2023-02-17T13:38:58;2.10;;;1.60;;
7575;SDS011;3829;50.798;4.358;2023-02-17T13:41:26;2.00;;;1.37;;
7575;SDS011;3829;50.798;4.358;2023-02-17T13:43:53;1.30;;;1.10;;
7575;SDS011;3829;50.798;4.358;2023-02-17T13:46:20;2.63;;;1.50;;
7575;SDS011;3829;50.798;4.358;2023-02-17T13:49:02;2.60;;;1.83;;
7575;SDS011;3829;50.798;4.358;2023-02-17T13:51:30;1.93;;;1.80;;
7575;SDS011;3829;50.798;4.358;2023-02-17T13:54:03;3.30;;;2.30;;
7575;SDS011;3829;50.798;4.358;2023-02-17T13:56:30;2.63;;;2.33;;
7575;SDS011;3829;50.798;4.358;2023-02-17T13:59:15;3.20;;;2.60;;
7575;SDS011;3829;50.798;4.358;2023-02-17T14:01:42;3.83;;;2.77;;
7575;SDS011;3829;50.798;4.358;2023-02-17T14:04:16;4.47;;;3.00;;
7575;SDS011;3829;50.798;4.358;2023-02-17T14:06:50;2.73;;;2.10;;
7575;SDS011;3829;50.798;4.358;2023-02-17T14:09:35;2.70;;;1.80;;
7575;SDS011;3829;50.798;4.358;2023-02-17T14:12:02;1.47;;;1.37;;
7575;SDS011;3829;50.798;4.358;2023-02-17T14:14:31;2.60;;;1.70;;
7575;SDS011;3829;50.798;4.358;2023-02-17T14:17:04;4.07;;;2.07;;
7575;SDS011;3829;50.798;4.358;2023-02-17T14:19:45;4.83;;;2.43;;
7575;SDS011;3829;50.798;4.358;2023-02-17T14:22:23;4.53;;;2.60;;
7575;SDS011;3829;50.798;4.358;2023-02-17T14:25:03;2.27;;;1.83;;
7575;SDS011;3829;50.798;4.358;2023-02-17T14:30:26;2.27;;;1.57;;
7575;SDS011;3829;50.798;4.358;2023-02-17T14:35:31;3.40;;;1.60;;
7575;SDS011;3829;50.798;4.358;2023-02-17T14:38:07;3.10;;;2.20;;
7575;SDS011;3829;50.798;4.358;2023-02-17T14:40:42;3.37;;;2.30;;
7575;SDS011;3829;50.798;4.358;2023-02-17T14:43:08;3.20;;;2.47;;
7575;SDS011;3829;50.798;4.358;2023-02-17T14:45:33;3.97;;;2.80;;
7575;SDS011;3829;50.798;4.358;2023-02-17T14:47:59;4.70;;;2.60;;
7575;SDS011;3829;50.798;4.358;2023-02-17T14:50:25;2.87;;;2.60;;
7575;SDS011;3829;50.798;4.358;2023-02-17T14:52:50;4.37;;;2.30;;
7575;SDS011;3829;50.798;4.358;2023-02-17T14:55:21;3.57;;;2.70;;
7575;SDS011;3829;50.798;4.358;2023-02-17T14:57:55;3.93;;;2.87;;
7575;SDS011;3829;50.798;4.358;2023-02-17T15:00:21;4.77;;;2.43;;
7575;SDS011;3829;50.798;4.358;2023-02-17T15:02:47;2.57;;;2.37;;
7575;SDS011;3829;50.798;4.358;2023-02-17T15:05:12;4.50;;;2.40;;
7575;SDS011;3829;50.798;4.358;2023-02-17T15:07:38;3.27;;;2.50;;
7575;SDS011;3829;50.798;4.358;2023-02-17T15:10:16;3.73;;;2.70;;
7575;SDS011;3829;50.798;4.358;2023-02-17T15:12:52;4.70;;;2.80;;
7575;SDS011;3829;50.798;4.358;2023-02-17T15:15:18;4.57;;;2.47;;
7575;SDS011;3829;50.798;4.358;2023-02-17T15:17:45;5.33;;;2.77;;
7575;SDS011;3829;50.798;4.358;2023-02-17T15:20:11;5.43;;;3.47;;
7575;SDS011;3829;50.798;4.358;2023-02-17T15:22:39;5.37;;;4.10;;
7575;SDS011;3829;50.798;4.358;2023-02-17T15:25:16;4.83;;;4.07;;
7575;SDS011;3829;50.798;4.358;2023-02-17T15:27:44;5.00;;;3.67;;
7575;SDS011;3829;50.798;4.358;2023-02-17T15:30:11;5.57;;;4.10;;
7575;SDS011;3829;50.798;4.358;2023-02-17T15:32:41;4.53;;;3.37;;
7575;SDS011;3829;50.798;4.358;2023-02-17T15:37:44;5.70;;;3.00;;
7575;SDS011;3829;50.798;4.358;2023-02-17T15:40:13;3.13;;;2.83;;
7575;SDS011;3829;50.798;4.358;2023-02-17T15:42:52;5.53;;;2.97;;
7575;SDS011;3829;50.798;4.358;2023-02-17T15:45:20;3.87;;;3.20;;
7575;SDS011;3829;50.798;4.358;2023-02-17T15:47:47;3.90;;;3.00;;
7575;SDS011;3829;50.798;4.358;2023-02-17T15:50:16;4.10;;;3.37;;
7575;SDS011;3829;50.798;4.358;2023-02-17T15:52:50;4.17;;;3.23;;
7575;SDS011;3829;50.798;4.358;2023-02-17T15:55:18;4.20;;;3.80;;
7575;SDS011;3829;50.798;4.358;2023-02-17T15:57:46;3.70;;;3.30;;
7575;SDS011;3829;50.798;4.358;2023-02-17T16:00:26;4.10;;;3.67;;
7575;SDS011;3829;50.798;4.358;2023-02-17T16:02:53;3.60;;;3.27;;
7575;SDS011;3829;50.798;4.358;2023-02-17T16:05:22;7.80;;;3.77;;
7575;SDS011;3829;50.798;4.358;2023-02-17T16:07:49;6.20;;;3.30;;
7575;SDS011;3829;50.798;4.358;2023-02-17T16:10:16;4.70;;;2.83;;
7575;SDS011;3829;50.798;4.358;2023-02-17T16:12:48;3.57;;;2.90;;
7575;SDS011;3829;50.798;4.358;2023-02-17T16:15:17;3.80;;;2.47;;
7575;SDS011;3829;50.798;4.358;2023-02-17T16:17:45;2.73;;;2.40;;
7575;SDS011;3829;50.798;4.358;2023-02-17T16:20:13;3.10;;;2.57;;
7575;SDS011;3829;50.798;4.358;2023-02-17T16:22:44;2.93;;;2.63;;
7575;SDS011;3829;50.798;4.358;2023-02-17T16:25:10;3.00;;;2.70;;
7575;SDS011;3829;50.798;4.358;2023-02-17T16:27:37;3.80;;;3.03;;
7575;SDS011;3829;50.798;4.358;2023-02-17T16:30:14;4.07;;;3.00;;
7575;SDS011;3829;50.798;4.358;2023-02-17T16:32:39;5.13;;;3.13;;
7575;SDS011;3829;50.798;4.358;2023-02-17T16:35:05;3.40;;;2.80;;
7575;SDS011;3829;50.798;4.358;2023-02-17T16:37:31;2.97;;;2.70;;
7575;SDS011;3829;50.798;4.358;2023-02-17T16:39:56;4.27;;;2.50;;
7575;SDS011;3829;50.798;4.358;2023-02-17T16:42:22;4.47;;;2.80;;
7575;SDS011;3829;50.798;4.358;2023-02-17T16:44:49;3.63;;;2.90;;
7575;SDS011;3829;50.798;4.358;2023-02-17T16:47:19;6.77;;;3.13;;
7575;SDS011;3829;50.798;4.358;2023-02-17T16:49:46;5.50;;;3.13;;
7575;SDS011;3829;50.798;4.358;2023-02-17T16:52:20;3.30;;;3.00;;
7575;SDS011;3829;50.798;4.358;2023-02-17T16:54:48;4.60;;;3.63;;
7575;SDS011;3829;50.798;4.358;2023-02-17T16:57:16;4.17;;;2.70;;
7575;SDS011;3829;50.798;4.358;2023-02-17T16:59:44;3.93;;;2.87;;
7575;SDS011;3829;50.798;4.358;2023-02-17T17:02:10;6.97;;;3.00;;
7575;SDS011;3829;50.798;4.358;2023-02-17T17:04:36;7.73;;;3.57;;